Time;durP1;ratioP1;P1;durP2;ratioP2;P2;SDS_P1;SDS_P2;PMS_P1;PMS_P2;Temp;Humidity;BMP_temperature;BMP_pressure;BME280_temperature;BME280_humidity;BME280_pressure;Samples;Min_cycle;Max_cycle;Signal;HPM_P1;HPM_P2
2022/06/04 00:00:59;;;;;;;11.43;4.87;;;22.30;54.10;;;;;;4977738;28;20261;-94
2022/06/04 00:03:27;;;;;;;8.50;4.23;;;22.30;54.50;;;;;;4974274;28;20230;-94
2022/06/04 00:05:57;;;;;;;7.53;3.60;;;22.20;54.20;;;;;;4971513;28;20296;-94
2022/06/04 00:08:26;;;;;;;8.07;3.53;;;22.20;54.60;;;;;;4973641;28;20708;-93
2022/06/04 00:16:29;;;;;;;5.27;2.60;;;22.20;54.50;;;;;;4959606;28;20269;-95
2022/06/04 00:18:59;;;;;;;11.53;4.43;;;22.10;54.30;;;;;;4977561;28;20670;-95
2022/06/04 00:21:29;;;;;;;15.03;5.80;;;22.00;54.30;;;;;;4972951;28;20214;-93
2022/06/04 00:23:56;;;;;;;8.30;3.57;;;22.00;54.40;;;;;;4973491;28;20246;-93
2022/06/04 00:26:25;;;;;;;9.20;4.27;;;22.00;54.30;;;;;;4973069;28;20655;-94
2022/06/04 00:28:53;;;;;;;5.13;2.97;;;22.00;54.30;;;;;;4974783;28;20298;-94
2022/06/04 00:31:21;;;;;;;8.63;3.60;;;22.00;55.10;;;;;;4983414;28;20309;-94
2022/06/04 00:33:50;;;;;;;6.80;3.20;;;22.00;54.30;;;;;;4970376;28;20612;-93
2022/06/04 00:36:17;;;;;;;14.87;5.20;;;21.90;54.40;;;;;;4955385;28;20216;-94
2022/06/04 00:38:46;;;;;;;10.97;4.10;;;22.00;54.50;;;;;;4972785;28;20210;-94
2022/06/04 00:41:34;;;;;;;7.17;3.40;;;22.00;54.50;;;;;;4973827;28;20206;-94
2022/06/04 00:44:37;;;;;;;7.10;3.57;;;22.00;55.10;;;;;;4988149;28;20237;-93
2022/06/04 00:47:15;;;;;;;6.33;2.70;;;21.90;55.00;;;;;;4972171;28;20249;-93
2022/06/04 00:49:44;;;;;;;7.87;3.40;;;21.90;54.70;;;;;;4954737;28;20226;-92
2022/06/04 00:52:14;;;;;;;7.13;3.73;;;21.90;54.20;;;;;;4964927;28;20207;-93
2022/06/04 00:54:44;;;;;;;9.73;3.33;;;21.90;54.50;;;;;;4974435;28;20252;-93
2022/06/04 00:57:29;;;;;;;5.97;3.00;;;21.90;54.50;;;;;;4974541;28;20196;-94
2022/06/04 01:00:05;;;;;;;6.00;2.97;;;21.80;54.80;;;;;;4973624;28;20198;-93
2022/06/04 01:02:46;;;;;;;9.60;4.43;;;21.80;55.10;;;;;;4979605;28;20230;-93
2022/06/04 01:05:30;;;;;;;6.53;3.17;;;21.80;54.60;;;;;;4994070;28;20195;-93
2022/06/04 01:08:21;;;;;;;6.13;2.60;;;21.80;54.60;;;;;;4963735;28;20227;-92
2022/06/04 01:11:01;;;;;;;5.60;3.13;;;21.70;54.80;;;;;;4974090;28;20309;-94
2022/06/04 01:13:48;;;;;;;8.63;3.50;;;21.70;54.80;;;;;;4972692;28;20215;-92
2022/06/04 01:16:23;;;;;;;9.27;4.00;;;21.70;54.80;;;;;;4977067;28;20217;-91
2022/06/04 01:18:58;;;;;;;9.83;4.20;;;21.60;54.40;;;;;;4973298;28;20824;-92
2022/06/04 01:21:33;;;;;;;9.20;3.93;;;21.60;54.70;;;;;;4974018;28;20217;-94
2022/06/04 01:24:23;;;;;;;8.87;3.73;;;21.60;55.10;;;;;;4985716;28;20325;-94
2022/06/04 01:27:08;;;;;;;8.30;3.37;;;21.60;54.70;;;;;;4990280;28;20269;-93
2022/06/04 01:29:39;;;;;;;8.33;3.90;;;21.60;54.70;;;;;;4976245;28;20209;-93
2022/06/04 01:32:15;;;;;;;6.67;3.07;;;21.50;54.30;;;;;;4980232;28;20210;-93
2022/06/04 01:34:49;;;;;;;7.37;3.60;;;21.50;54.60;;;;;;4977226;28;20630;-92
2022/06/04 01:37:23;;;;;;;11.50;4.70;;;21.50;54.40;;;;;;4993002;28;20995;-92
2022/06/04 01:42:43;;;;;;;9.20;3.87;;;21.50;54.60;;;;;;4995513;28;20227;-95
2022/06/04 01:45:15;;;;;;;6.40;3.23;;;21.50;54.60;;;;;;4993478;28;20794;-93
2022/06/04 01:47:46;;;;;;;12.00;4.90;;;21.50;54.50;;;;;;4976110;28;20737;-93
2022/06/04 01:50:18;;;;;;;11.77;4.80;;;21.40;54.40;;;;;;4978176;28;20636;-92
2022/06/04 01:52:50;;;;;;;7.87;3.60;;;21.40;54.30;;;;;;4975530;28;20508;-95
2022/06/04 01:55:23;;;;;;;11.77;5.07;;;21.30;54.40;;;;;;4976686;28;20624;-93
2022/06/04 01:57:58;;;;;;;9.27;4.37;;;21.40;54.40;;;;;;4972873;28;20322;-93
2022/06/04 02:00:29;;;;;;;12.70;5.33;;;21.30;54.40;;;;;;4972447;28;20212;-93
2022/06/04 02:02:59;;;;;;;7.07;3.00;;;21.30;54.50;;;;;;4995389;28;20578;-94
2022/06/04 02:05:31;;;;;;;10.83;4.60;;;21.30;54.50;;;;;;4976788;28;20206;-93
2022/06/04 02:08:04;;;;;;;7.80;3.53;;;21.20;54.40;;;;;;4996730;28;20653;-94
2022/06/04 02:10:35;;;;;;;10.67;3.80;;;21.20;54.40;;;;;;4977895;28;20199;-92
2022/06/04 02:13:09;;;;;;;12.17;4.73;;;21.10;54.60;;;;;;4977140;28;20216;-92
2022/06/04 02:15:46;;;;;;;6.97;3.53;;;21.10;55.00;;;;;;4977140;28;20207;-92
2022/06/04 02:18:13;;;;;;;7.80;3.53;;;21.10;54.70;;;;;;4976299;28;20261;-93
2022/06/04 02:20:40;;;;;;;12.30;4.90;;;21.00;54.50;;;;;;4971546;28;20722;-94
2022/06/04 02:23:08;;;;;;;7.53;3.73;;;20.90;54.50;;;;;;4965727;28;20238;-95
2022/06/04 02:25:35;;;;;;;10.10;3.60;;;20.90;54.70;;;;;;4976602;28;20290;-92
2022/06/04 02:28:06;;;;;;;9.07;4.03;;;20.90;55.20;;;;;;4976192;28;20502;-93
2022/06/04 02:30:51;;;;;;;5.73;2.73;;;20.80;54.60;;;;;;4975723;28;20643;-91
2022/06/04 02:33:28;;;;;;;7.90;3.53;;;20.80;54.80;;;;;;4977505;28;20662;-93
2022/06/04 02:36:02;;;;;;;5.77;3.00;;;20.80;54.80;;;;;;4974903;28;20218;-95
2022/06/04 02:38:39;;;;;;;11.20;4.03;;;20.70;54.70;;;;;;4976606;28;20217;-93
2022/06/04 02:41:17;;;;;;;5.23;2.80;;;20.70;54.80;;;;;;4965054;28;20204;-92
2022/06/04 02:43:54;;;;;;;9.67;4.17;;;20.60;54.80;;;;;;4956498;29;20250;-93
2022/06/04 02:46:27;;;;;;;10.03;3.60;;;20.60;54.70;;;;;;4970296;28;20206;-93
2022/06/04 02:49:09;;;;;;;8.17;3.73;;;20.50;54.70;;;;;;4975178;28;20210;-93
2022/06/04 02:51:40;;;;;;;9.23;4.07;;;20.50;54.70;;;;;;4979105;28;20202;-92
2022/06/04 02:54:11;;;;;;;8.93;3.33;;;20.40;54.80;;;;;;4989780;28;20625;-94
2022/06/04 02:56:41;;;;;;;10.50;4.33;;;20.40;54.70;;;;;;4975131;28;20207;-94
2022/06/04 02:59:15;;;;;;;7.07;3.60;;;20.40;54.60;;;;;;4983409;28;20223;-93
2022/06/04 03:01:45;;;;;;;9.30;3.60;;;20.30;54.40;;;;;;4973767;28;20211;-95
2022/06/04 03:04:18;;;;;;;10.00;4.23;;;20.30;54.40;;;;;;4955104;29;20313;-92
2022/06/04 03:06:45;;;;;;;8.87;3.63;;;20.30;54.40;;;;;;4969897;28;20219;-96
2022/06/04 03:09:16;;;;;;;8.43;3.40;;;20.20;54.30;;;;;;4976046;28;20671;-92
2022/06/04 03:11:46;;;;;;;9.60;4.13;;;20.20;54.30;;;;;;4976802;28;20202;-94
2022/06/04 03:14:21;;;;;;;7.00;3.00;;;20.20;54.50;;;;;;4995895;28;20280;-91
2022/06/04 03:16:49;;;;;;;8.10;3.40;;;20.10;54.40;;;;;;4985743;28;20229;-93
2022/06/04 03:19:17;;;;;;;11.20;4.30;;;20.10;54.40;;;;;;4967026;28;20552;-94
2022/06/04 03:21:45;;;;;;;9.63;3.23;;;20.10;54.30;;;;;;4976540;28;20206;-92
2022/06/04 03:24:14;;;;;;;7.47;3.43;;;20.00;54.40;;;;;;4977956;28;20234;-94
2022/06/04 03:26:42;;;;;;;7.27;3.40;;;20.00;54.40;;;;;;4978393;28;20203;-93
2022/06/04 03:29:10;;;;;;;9.00;3.80;;;20.00;54.40;;;;;;4971722;28;20207;-94
2022/06/04 03:31:44;;;;;;;10.00;3.80;;;19.90;54.40;;;;;;4974520;28;20202;-94
2022/06/04 03:34:19;;;;;;;10.37;3.83;;;19.90;54.70;;;;;;4962116;28;20257;-93
2022/06/04 03:36:46;;;;;;;8.47;3.90;;;19.90;54.80;;;;;;4967727;28;20697;-93
2022/06/04 03:39:17;;;;;;;5.67;2.40;;;19.80;54.60;;;;;;4975601;28;20325;-92
2022/06/04 03:41:47;;;;;;;11.33;4.47;;;19.80;54.80;;;;;;4975908;28;20269;-93
2022/06/04 03:44:17;;;;;;;8.13;3.60;;;19.80;54.70;;;;;;4975219;28;20237;-91
2022/06/04 03:46:49;;;;;;;7.00;3.20;;;19.70;54.90;;;;;;4964420;28;20222;-93
2022/06/04 03:49:21;;;;;;;12.13;4.43;;;19.70;54.80;;;;;;4975224;28;20222;-94
2022/06/04 03:51:49;;;;;;;10.07;4.00;;;19.60;55.00;;;;;;4979738;28;20198;-94
2022/06/04 03:54:52;;;;;;;11.67;4.53;;;19.60;54.80;;;;;;4982814;28;20782;-95
2022/06/04 03:59:52;;;;;;;8.43;3.70;;;19.50;54.90;;;;;;4990616;28;20217;-94
2022/06/04 04:02:22;;;;;;;10.60;4.07;;;19.50;55.20;;;;;;4981156;28;20198;-94
2022/06/04 04:04:50;;;;;;;9.27;4.50;;;19.50;55.20;;;;;;4985257;28;20242;-93
2022/06/04 04:07:18;;;;;;;8.67;3.70;;;19.50;55.20;;;;;;4984150;28;20221;-93
2022/06/04 04:09:45;;;;;;;8.40;3.93;;;19.50;55.20;;;;;;4982545;28;20207;-93
2022/06/04 04:12:18;;;;;;;8.33;3.70;;;19.40;55.10;;;;;;4978000;28;20218;-94
2022/06/04 04:14:46;;;;;;;5.87;3.30;;;19.40;55.20;;;;;;4991864;28;20655;-92
2022/06/04 04:17:15;;;;;;;7.90;3.57;;;19.40;55.10;;;;;;4970812;28;20211;-93
2022/06/04 04:19:47;;;;;;;6.13;3.17;;;19.40;55.10;;;;;;4978728;28;20830;-94
2022/06/04 04:22:14;;;;;;;10.33;4.13;;;19.40;55.20;;;;;;4995003;28;20617;-92
2022/06/04 04:24:47;;;;;;;7.07;3.33;;;19.30;55.00;;;;;;4975276;28;20713;-94
2022/06/04 04:27:14;;;;;;;6.47;3.10;;;19.30;55.20;;;;;;4971974;28;20204;-94
2022/06/04 04:29:47;;;;;;;8.07;3.60;;;19.30;55.10;;;;;;4969730;29;20302;-93
2022/06/04 04:32:14;;;;;;;9.87;4.27;;;19.20;55.20;;;;;;4986448;28;20404;-94
2022/06/04 04:34:42;;;;;;;9.30;3.63;;;19.20;55.10;;;;;;4967049;29;20214;-94
2022/06/04 04:37:11;;;;;;;10.50;4.17;;;19.20;55.10;;;;;;4984207;28;20202;-93
2022/06/04 04:39:39;;;;;;;6.20;3.17;;;19.20;55.10;;;;;;4982831;28;20236;-91
2022/06/04 04:42:08;;;;;;;9.13;4.10;;;19.20;55.40;;;;;;4975032;28;20198;-91
2022/06/04 04:44:36;;;;;;;11.67;4.70;;;19.20;55.50;;;;;;4975040;28;20233;-94
2022/06/04 04:47:06;;;;;;;5.87;3.33;;;19.20;55.30;;;;;;4959143;28;20214;-96
2022/06/04 04:49:34;;;;;;;10.63;3.77;;;19.10;55.20;;;;;;4974863;28;20321;-94
2022/06/04 04:52:04;;;;;;;8.53;3.80;;;19.10;55.00;;;;;;4979526;28;20202;-93
2022/06/04 04:54:39;;;;;;;9.20;3.77;;;19.10;55.20;;;;;;4974493;28;20207;-95
2022/06/04 04:57:07;;;;;;;8.33;3.60;;;19.10;55.20;;;;;;4974835;28;20299;-92
2022/06/04 04:59:37;;;;;;;12.80;4.13;;;19.10;55.20;;;;;;4974532;28;20207;-93
2022/06/04 05:02:06;;;;;;;6.50;3.23;;;19.10;55.20;;;;;;4972672;28;20225;-93
2022/06/04 05:04:35;;;;;;;9.33;3.90;;;19.10;55.10;;;;;;4971861;28;20250;-93
2022/06/04 05:07:09;;;;;;;8.90;3.80;;;19.10;55.10;;;;;;4973939;28;20231;-91
2022/06/04 05:09:38;;;;;;;9.13;4.00;;;19.10;55.00;;;;;;4973272;28;20213;-92
2022/06/04 05:12:09;;;;;;;9.07;3.63;;;19.10;55.00;;;;;;4962740;28;20219;-93
2022/06/04 05:14:37;;;;;;;10.63;4.23;;;19.10;55.10;;;;;;4957687;28;20214;-92
2022/06/04 05:17:04;;;;;;;12.83;3.90;;;19.20;55.10;;;;;;4969207;28;20241;-94
2022/06/04 05:19:32;;;;;;;12.07;4.27;;;19.20;55.10;;;;;;4961038;28;20206;-91
2022/06/04 05:22:00;;;;;;;14.13;4.57;;;19.20;55.10;;;;;;4968969;28;20213;-92
2022/06/04 05:24:29;;;;;;;11.03;3.83;;;19.10;55.00;;;;;;4972671;28;20237;-92
2022/06/04 05:26:57;;;;;;;11.43;3.93;;;19.20;55.10;;;;;;4973500;28;20236;-91
2022/06/04 05:29:28;;;;;;;8.63;3.40;;;19.10;55.30;;;;;;4973092;28;20206;-93
2022/06/04 05:31:56;;;;;;;9.67;3.77;;;19.20;55.40;;;;;;4972506;28;20298;-93
2022/06/04 05:34:26;;;;;;;28.97;7.83;;;19.10;55.00;;;;;;4973223;28;20198;-91
2022/06/04 05:36:54;;;;;;;9.83;3.80;;;19.10;55.10;;;;;;4972856;28;20262;-91
2022/06/04 05:39:24;;;;;;;9.83;3.60;;;19.10;55.10;;;;;;4990473;28;20209;-95
2022/06/04 05:41:58;;;;;;;8.37;3.40;;;19.20;55.10;;;;;;4980541;28;20211;-95
2022/06/04 05:44:28;;;;;;;8.70;3.63;;;19.20;55.10;;;;;;4973416;28;20231;-93
2022/06/04 05:46:55;;;;;;;7.10;3.30;;;19.10;55.10;;;;;;4980802;28;20876;-92
2022/06/04 05:49:23;;;;;;;9.50;4.10;;;19.10;55.00;;;;;;4973223;28;20246;-92
2022/06/04 05:51:53;;;;;;;9.47;3.90;;;19.10;55.00;;;;;;4974054;28;20213;-94
2022/06/04 05:54:21;;;;;;;10.33;4.30;;;19.10;55.00;;;;;;4973683;28;20218;-92
2022/06/04 05:56:50;;;;;;;11.70;4.57;;;19.10;55.00;;;;;;4973515;28;20216;-94
2022/06/04 05:59:20;;;;;;;8.83;3.90;;;19.10;55.00;;;;;;4973202;28;20207;-96
2022/06/04 06:01:51;;;;;;;11.57;4.53;;;19.10;55.10;;;;;;4972927;28;20563;-92
2022/06/04 06:04:21;;;;;;;8.93;3.97;;;19.10;55.30;;;;;;4973465;28;20285;-93
2022/06/04 06:06:51;;;;;;;10.67;4.70;;;19.10;55.40;;;;;;4976936;28;20655;-92
2022/06/04 06:09:22;;;;;;;10.73;4.07;;;19.10;55.50;;;;;;4975278;28;20212;-93
2022/06/04 06:11:50;;;;;;;14.90;4.90;;;19.10;56.10;;;;;;4975300;28;20210;-91
2022/06/04 06:14:18;;;;;;;15.90;5.60;;;19.10;55.70;;;;;;4975626;28;20207;-95
2022/06/04 06:16:48;;;;;;;13.20;5.17;;;19.10;55.70;;;;;;4988008;28;20213;-92
2022/06/04 06:19:19;;;;;;;14.77;5.70;;;19.00;55.70;;;;;;4969830;28;20214;-94
2022/06/04 06:21:49;;;;;;;9.00;3.30;;;19.10;55.80;;;;;;4975793;28;20233;-94
2022/06/04 06:24:17;;;;;;;10.00;4.33;;;19.00;55.90;;;;;;4974077;28;20820;-91
2022/06/04 06:26:49;;;;;;;11.13;4.17;;;19.10;56.00;;;;;;4978461;28;20265;-95
2022/06/04 06:29:24;;;;;;;5.73;3.20;;;19.10;56.10;;;;;;4977320;28;20298;-94
2022/06/04 06:32:04;;;;;;;9.47;4.50;;;19.10;56.20;;;;;;4976038;28;20736;-93
2022/06/04 06:34:33;;;;;;;35.57;11.67;;;19.10;56.20;;;;;;4985445;23;20298;-94
2022/06/04 06:37:06;;;;;;;10.17;4.07;;;19.20;56.20;;;;;;4994353;28;20305;-93
2022/06/04 06:39:33;;;;;;;7.83;3.67;;;19.20;56.20;;;;;;4986081;28;21250;-94
2022/06/04 06:44:31;;;;;;;10.73;5.30;;;19.20;56.10;;;;;;5022330;23;20255;-92
2022/06/04 06:46:59;;;;;;;7.10;3.40;;;19.20;56.10;;;;;;5035111;28;20216;-94
2022/06/04 06:49:28;;;;;;;10.80;4.87;;;19.30;56.20;;;;;;5018956;28;20213;-94
2022/06/04 06:52:00;;;;;;;9.17;4.10;;;19.30;56.40;;;;;;5027818;28;20232;-91
2022/06/04 06:54:31;;;;;;;23.10;5.77;;;19.30;56.50;;;;;;5020731;28;20243;-96
2022/06/04 07:00:05;;;;;;;15.43;5.20;;;19.40;56.60;;;;;;5014246;28;20229;-94
2022/06/04 07:02:39;;;;;;;6.27;3.60;;;19.50;56.70;;;;;;5001739;28;20221;-93
2022/06/04 07:05:25;;;;;;;14.03;5.57;;;19.60;56.70;;;;;;5016840;28;20609;-94
2022/06/04 07:07:55;;;;;;;6.17;3.77;;;19.70;56.80;;;;;;5011422;28;20194;-93
2022/06/04 07:10:23;;;;;;;9.67;4.33;;;19.70;56.60;;;;;;5014860;28;20205;-93
2022/06/04 07:12:50;;;;;;;7.40;3.57;;;19.80;56.50;;;;;;5014509;28;20193;-92
2022/06/04 07:15:18;;;;;;;10.17;3.93;;;19.90;56.50;;;;;;5014690;28;20209;-93
2022/06/04 07:17:48;;;;;;;9.40;4.30;;;20.00;56.50;;;;;;5012730;28;20320;-95
2022/06/04 07:20:20;;;;;;;6.60;4.03;;;20.00;56.30;;;;;;5013719;28;20296;-94
2022/06/04 07:22:48;;;;;;;10.83;5.27;;;20.10;56.30;;;;;;5019729;28;20206;-93
2022/06/04 07:25:16;;;;;;;9.60;4.63;;;20.10;56.20;;;;;;5026453;28;20233;-93
2022/06/04 07:27:45;;;;;;;14.00;5.90;;;20.10;56.30;;;;;;5019863;28;20201;-90
2022/06/04 07:30:19;;;;;;;13.67;5.10;;;20.20;56.30;;;;;;5017268;28;20251;-94
2022/06/04 07:32:49;;;;;;;8.07;4.10;;;20.20;56.30;;;;;;5015291;28;20229;-94
2022/06/04 07:37:56;;;;;;;8.27;4.30;;;20.30;56.50;;;;;;5011417;23;20287;-94
2022/06/04 07:40:28;;;;;;;12.80;5.67;;;20.30;56.20;;;;;;4980883;28;20551;-93
2022/06/04 07:42:57;;;;;;;9.73;4.77;;;20.30;56.00;;;;;;4996264;28;20221;-96
2022/06/04 07:45:24;;;;;;;17.73;7.27;;;20.40;56.10;;;;;;4990565;28;20222;-95
2022/06/04 07:47:51;;;;;;;13.90;5.90;;;20.30;56.20;;;;;;4995347;28;20269;-95
2022/06/04 07:50:18;;;;;;;9.30;4.97;;;20.40;56.30;;;;;;4994041;28;20207;-95
2022/06/04 07:52:48;;;;;;;10.97;5.17;;;20.30;56.20;;;;;;4995064;28;20205;-91
2022/06/04 07:55:16;;;;;;;7.10;4.73;;;20.40;56.40;;;;;;4995102;28;20207;-93
2022/06/04 07:58:08;;;;;;;10.33;4.13;;;20.40;56.50;;;;;;4996320;28;20226;-92
2022/06/04 08:00:41;;;;;;;22.47;8.30;;;20.40;56.60;;;;;;4993186;23;20209;-96
2022/06/04 08:03:10;;;;;;;10.57;4.70;;;20.40;56.60;;;;;;4956427;28;20215;-92
2022/06/04 08:05:38;;;;;;;10.87;5.60;;;20.40;56.60;;;;;;4957532;28;20235;-93
2022/06/04 08:08:05;;;;;;;14.80;5.97;;;20.40;56.70;;;;;;4953723;29;20639;-94
2022/06/04 08:10:33;;;;;;;24.17;7.47;;;20.40;56.60;;;;;;4958252;28;20200;-93
2022/06/04 08:13:07;;;;;;;7.27;4.47;;;20.50;56.70;;;;;;4960272;28;20202;-93
2022/06/04 08:15:42;;;;;;;7.70;4.53;;;20.50;57.00;;;;;;4954797;28;20718;-94
2022/06/04 08:18:11;;;;;;;7.50;4.50;;;20.60;56.90;;;;;;4953815;28;20221;-93
2022/06/04 08:20:46;;;;;;;7.60;5.03;;;20.60;56.80;;;;;;4956480;28;20206;-95
2022/06/04 08:23:23;;;;;;;9.20;5.30;;;20.70;56.90;;;;;;4953316;28;20791;-96
2022/06/04 08:25:52;;;;;;;8.73;4.47;;;20.80;57.20;;;;;;4956588;29;20630;-94
2022/06/04 08:28:23;;;;;;;10.80;5.47;;;20.90;56.90;;;;;;4954920;28;20208;-96
2022/06/04 08:31:02;;;;;;;11.07;5.80;;;20.90;56.90;;;;;;4950728;29;20215;-94
2022/06/04 08:36:13;;;;;;;10.20;5.40;;;21.10;56.60;;;;;;5005833;23;20225;-92
2022/06/04 08:38:43;;;;;;;22.57;7.87;;;21.20;56.60;;;;;;4996142;28;20576;-95
2022/06/04 08:41:33;;;;;;;11.10;5.50;;;21.30;56.70;;;;;;4999585;28;20268;-93
2022/06/04 08:44:08;;;;;;;8.87;4.90;;;21.30;56.70;;;;;;5000767;28;20662;-96
2022/06/04 08:46:43;;;;;;;13.20;5.97;;;21.40;56.60;;;;;;5000543;28;20222;-92
2022/06/04 08:49:17;;;;;;;10.27;5.10;;;21.40;56.60;;;;;;5004570;28;20196;-96
2022/06/04 08:51:46;;;;;;;6.30;4.27;;;21.40;56.50;;;;;;5002279;28;20201;-93
2022/06/04 09:00:01;;;;;;;7.17;4.57;;;21.50;56.40;;;;;;4996945;28;20318;-94
2022/06/04 09:02:39;;;;;;;19.97;8.10;;;21.60;56.30;;;;;;4999527;28;20202;-91
2022/06/04 09:05:18;;;;;;;10.90;6.03;;;21.70;57.00;;;;;;4994157;28;20681;-95
2022/06/04 09:07:52;;;;;;;9.83;5.60;;;21.70;56.10;;;;;;4990931;28;20213;-96
2022/06/04 09:10:27;;;;;;;13.27;6.27;;;21.70;55.90;;;;;;4991222;28;20213;-95
2022/06/04 09:13:00;;;;;;;11.30;6.63;;;21.80;56.00;;;;;;4990594;28;20205;-94
2022/06/04 09:15:35;;;;;;;12.67;6.83;;;21.80;55.80;;;;;;4991278;28;20267;-94
2022/06/04 09:18:13;;;;;;;19.87;8.13;;;21.90;55.70;;;;;;4988988;28;20260;-94
2022/06/04 09:20:44;;;;;;;13.60;5.93;;;21.90;55.80;;;;;;4983364;28;20252;-95
2022/06/04 09:23:19;;;;;;;10.33;6.20;;;21.90;55.70;;;;;;4984935;28;20206;-93
2022/06/04 09:25:47;;;;;;;17.83;7.07;;;22.00;55.50;;;;;;5012231;28;20257;-95
2022/06/04 09:28:32;;;;;;;12.17;6.67;;;22.00;55.90;;;;;;5012403;28;20212;-94
2022/06/04 09:31:12;;;;;;;12.57;6.57;;;22.00;56.00;;;;;;5013983;28;20208;-95
2022/06/04 09:33:57;;;;;;;13.53;6.70;;;22.10;56.20;;;;;;5013802;28;20201;-94
2022/06/04 09:36:27;;;;;;;13.60;6.90;;;22.10;55.70;;;;;;5015093;28;20213;-93
2022/06/04 09:39:00;;;;;;;12.90;6.10;;;22.20;56.20;;;;;;4996690;28;20206;-95
2022/06/04 09:41:34;;;;;;;13.50;7.37;;;22.30;56.00;;;;;;5005163;28;20209;-95
2022/06/04 09:44:06;;;;;;;29.63;9.83;;;22.30;56.00;;;;;;5017192;28;20209;-95
2022/06/04 09:46:36;;;;;;;16.23;7.40;;;22.40;56.40;;;;;;5014950;28;20685;-93
2022/06/04 09:49:14;;;;;;;12.60;7.03;;;22.50;56.20;;;;;;5005675;28;20210;-92
2022/06/04 09:51:44;;;;;;;9.83;5.60;;;22.60;56.00;;;;;;4992320;28;20264;-93
2022/06/04 09:54:34;;;;;;;17.83;7.93;;;22.70;56.10;;;;;;4989482;28;20198;-93
2022/06/04 09:57:04;;;;;;;15.70;6.57;;;22.90;56.10;;;;;;4992746;28;20283;-95
2022/06/04 09:59:34;;;;;;;10.60;6.57;;;23.00;55.70;;;;;;4996910;28;20205;-93
2022/06/04 10:02:20;;;;;;;8.60;5.77;;;23.20;56.00;;;;;;5011941;28;20464;-92
2022/06/04 10:04:49;;;;;;;9.70;5.93;;;23.40;55.70;;;;;;5000553;28;20236;-93
2022/06/04 10:07:20;;;;;;;11.40;6.30;;;23.50;55.60;;;;;;4993095;28;20244;-92
2022/06/04 10:09:56;;;;;;;11.20;6.70;;;23.70;55.50;;;;;;4994275;28;20210;-94
2022/06/04 10:15:30;;;;;;;10.77;6.37;;;24.10;55.10;;;;;;4972900;28;20220;-94
2022/06/04 10:18:16;;;;;;;8.00;5.50;;;24.40;55.00;;;;;;4992913;28;20690;-90
2022/06/04 10:20:58;;;;;;;8.73;5.73;;;24.60;54.80;;;;;;4992088;28;20214;-93
2022/06/04 10:23:29;;;;;;;12.37;7.27;;;24.80;54.60;;;;;;4995532;28;20732;-90
2022/06/04 10:26:25;;;;;;;8.20;5.80;;;24.90;54.30;;;;;;4993754;28;20234;-94
2022/06/04 10:29:10;;;;;;;13.47;6.90;;;25.20;53.80;;;;;;4978808;28;20210;-91
2022/06/04 10:31:49;;;;;;;15.23;8.13;;;25.40;53.30;;;;;;4994014;28;20669;-92
2022/06/04 10:34:30;;;;;;;12.77;7.33;;;25.50;53.20;;;;;;4996416;28;21058;-92
2022/06/04 10:37:12;;;;;;;12.77;7.40;;;25.60;52.80;;;;;;4995500;28;20209;-90
2022/06/04 10:39:59;;;;;;;14.83;8.07;;;25.70;53.10;;;;;;4992591;28;20226;-93
2022/06/04 10:42:37;;;;;;;17.30;9.30;;;25.80;52.60;;;;;;4977834;28;20268;-91
2022/06/04 10:45:32;;;;;;;9.07;5.80;;;25.90;52.40;;;;;;4988342;28;20207;-95
2022/06/04 10:48:06;;;;;;;10.93;6.97;;;26.00;52.00;;;;;;5005928;28;20203;-93
2022/06/04 10:54:08;;;;;;;16.37;7.63;;;26.00;52.20;;;;;;5003769;28;20221;-94
2022/06/04 10:56:44;;;;;;;8.83;6.40;;;26.00;51.40;;;;;;5005885;28;20229;-94
2022/06/04 10:59:22;;;;;;;14.90;7.67;;;26.00;52.40;;;;;;5016189;28;20215;-93
2022/06/04 11:01:59;;;;;;;9.17;6.13;;;26.00;52.50;;;;;;5003401;28;20206;-93
2022/06/04 11:04:35;;;;;;;10.13;6.63;;;26.00;52.60;;;;;;4996894;28;20253;-94
2022/06/04 11:07:20;;;;;;;15.67;8.67;;;26.00;52.30;;;;;;4984430;28;20793;-93
2022/06/04 11:09:51;;;;;;;12.77;7.60;;;26.10;52.20;;;;;;4989955;28;20240;-92
2022/06/04 11:12:39;;;;;;;17.47;9.17;;;26.10;52.70;;;;;;4985676;28;20309;-90
2022/06/04 11:15:16;;;;;;;13.20;8.43;;;26.20;52.40;;;;;;4989179;28;20303;-91
2022/06/04 11:17:55;;;;;;;12.87;8.83;;;26.30;52.00;;;;;;4990345;28;21015;-95
2022/06/04 11:20:50;;;;;;;12.20;7.27;;;26.40;51.60;;;;;;4992356;28;20197;-94
2022/06/04 11:23:45;;;;;;;12.07;8.70;;;26.60;52.10;;;;;;4991526;28;20210;-91
2022/06/04 11:26:21;;;;;;;15.70;7.43;;;26.70;50.70;;;;;;4988811;28;20257;-88
2022/06/04 11:28:48;;;;;;;13.20;8.27;;;26.90;51.30;;;;;;4990423;28;20209;-92
2022/06/04 11:32:03;;;;;;;16.33;9.17;;;27.00;51.40;;;;;;4982892;28;20269;-92
2022/06/04 11:34:58;;;;;;;11.83;7.53;;;27.10;51.10;;;;;;4986226;28;20213;-91
2022/06/04 11:37:40;;;;;;;12.50;7.93;;;27.20;50.40;;;;;;4991372;28;20744;-91
2022/06/04 11:40:21;;;;;;;16.10;9.73;;;27.30;49.60;;;;;;4987907;28;20245;-91
2022/06/04 11:42:56;;;;;;;12.30;7.50;;;27.50;50.00;;;;;;4991366;28;20320;-90
2022/06/04 11:45:55;;;;;;;15.87;9.20;;;27.60;50.00;;;;;;4990078;28;21114;-89
2022/06/04 11:48:58;;;;;;;12.97;7.53;;;27.60;49.10;;;;;;4998272;22;20734;-91
2022/06/04 11:52:03;;;;;;;11.17;7.90;;;27.70;49.30;;;;;;4990227;28;20299;-92
2022/06/04 11:55:09;;;;;;;10.27;7.03;;;27.80;48.70;;;;;;4972162;28;20206;-93
2022/06/04 11:58:03;;;;;;;10.53;6.97;;;28.00;49.00;;;;;;4961645;28;20603;-91
2022/06/04 12:00:49;;;;;;;12.17;8.20;;;28.00;48.90;;;;;;4963162;28;20620;-92
2022/06/04 12:03:22;;;;;;;11.40;8.13;;;28.10;48.00;;;;;;4968578;28;20257;-92
2022/06/04 12:06:03;;;;;;;12.00;7.60;;;28.20;48.30;;;;;;4967891;28;20775;-92
2022/06/04 12:08:38;;;;;;;13.50;8.07;;;28.30;48.10;;;;;;4967830;28;20305;-92
2022/06/04 12:11:20;;;;;;;15.77;9.77;;;28.40;48.50;;;;;;4958286;28;20210;-92
2022/06/04 12:14:01;;;;;;;11.20;6.80;;;28.50;48.20;;;;;;4970433;28;20341;-94
2022/06/04 12:16:38;;;;;;;13.50;7.67;;;28.60;48.20;;;;;;4968774;28;20214;-95
2022/06/04 12:25:37;;;;;;;22.60;12.17;;;28.80;47.60;;;;;;5013200;28;20628;-95
2022/06/04 12:28:30;;;;;;;14.97;9.20;;;29.00;47.30;;;;;;5008057;28;20271;-94
2022/06/04 12:31:38;;;;;;;15.17;8.57;;;29.00;47.20;;;;;;5009689;28;20740;-95
2022/06/04 12:36:57;;;;;;;13.83;9.07;;;29.20;47.10;;;;;;4994580;23;21004;-93
2022/06/04 12:39:38;;;;;;;13.77;9.30;;;29.30;46.60;;;;;;4990206;28;20191;-94
2022/06/04 12:42:16;;;;;;;12.10;8.10;;;29.40;46.20;;;;;;4986266;28;20264;-92
2022/06/04 12:44:55;;;;;;;12.47;8.80;;;29.50;45.80;;;;;;4982100;28;20199;-91
2022/06/04 12:47:42;;;;;;;12.87;8.30;;;29.50;45.80;;;;;;4981199;28;20229;-92
2022/06/04 12:50:24;;;;;;;14.97;9.70;;;29.50;45.40;;;;;;4978578;28;20284;-94
2022/06/04 12:53:02;;;;;;;18.73;10.03;;;29.50;45.70;;;;;;5006608;23;20205;-90
2022/06/04 12:55:34;;;;;;;15.40;8.00;;;29.60;45.90;;;;;;4963770;28;20247;-93
2022/06/04 12:58:28;;;;;;;23.90;10.37;;;29.60;45.80;;;;;;4943879;28;20235;-94
2022/06/04 13:01:42;;;;;;;12.57;8.07;;;29.60;45.00;;;;;;4948685;28;20264;-89
2022/06/04 13:07:39;;;;;;;18.93;10.40;;;29.70;45.50;;;;;;4981965;23;20273;-95
2022/06/04 13:10:28;;;;;;;13.93;9.13;;;29.70;45.50;;;;;;4972385;28;20539;-96
2022/06/04 13:13:03;;;;;;;14.20;8.83;;;29.80;45.10;;;;;;4970648;28;20210;-93
2022/06/04 13:15:46;;;;;;;14.97;8.53;;;29.80;45.30;;;;;;4969434;28;20611;-94
2022/06/04 13:22:10;;;;;;;11.60;8.13;;;29.90;45.20;;;;;;5044903;23;20240;-96
2022/06/04 13:24:52;;;;;;;14.73;9.80;;;29.90;45.20;;;;;;4984604;28;20225;-95
2022/06/04 13:27:45;;;;;;;11.97;8.57;;;30.00;45.30;;;;;;4993579;28;20678;-96
2022/06/04 13:33:37;;;;;;;11.50;7.57;;;30.00;44.50;;;;;;4989956;28;20245;-95
2022/06/04 13:38:47;;;;;;;14.80;9.13;;;30.20;45.40;;;;;;5085181;23;20645;-91
2022/06/04 13:44:29;;;;;;;12.35;8.13;;;30.30;44.00;;;;;;4993574;28;20206;-93
2022/06/04 13:47:08;;;;;;;9.75;7.53;;;30.30;44.90;;;;;;4994743;28;20223;-96
2022/06/04 13:49:54;;;;;;;10.50;7.78;;;30.40;44.70;;;;;;4987452;28;20198;-96
2022/06/04 13:52:27;;;;;;;15.13;9.90;;;30.40;44.50;;;;;;4987751;28;20221;-94
2022/06/04 13:57:54;;;;;;;12.55;7.35;;;30.60;44.40;;;;;;5004572;23;20699;-93
2022/06/04 14:00:30;;;;;;;12.03;7.93;;;30.70;44.20;;;;;;4994408;28;20229;-95
2022/06/04 14:03:00;;;;;;;11.90;7.13;;;30.70;44.40;;;;;;4984600;28;20620;-94
2022/06/04 14:05:51;;;;;;;12.60;8.38;;;30.80;44.10;;;;;;5246226;23;20720;-95
2022/06/04 14:08:25;;;;;;;9.73;7.55;;;30.80;44.30;;;;;;5017709;28;20324;-95
2022/06/04 14:11:18;;;;;;;10.63;6.80;;;30.90;44.00;;;;;;5021505;28;20204;-95
2022/06/04 14:14:06;;;;;;;12.20;8.32;;;30.90;43.70;;;;;;5015187;28;20574;-93
2022/06/04 14:16:59;;;;;;;9.20;6.97;;;31.00;43.70;;;;;;5022597;28;20213;-92
2022/06/04 14:19:43;;;;;;;12.35;8.90;;;31.00;44.10;;;;;;5013510;28;20275;-96
2022/06/04 14:22:40;;;;;;;12.38;8.43;;;31.10;43.90;;;;;;5012962;28;20863;-90